sensor_id;sensor_type;location;lat;lon;timestamp;temperature;humidity
33645;DHT22;19986;48.190;16.366;2022-11-11T00:01:15;11.90;99.90
33645;DHT22;19986;48.190;16.366;2022-11-11T00:03:42;11.90;99.90
33645;DHT22;19986;48.190;16.366;2022-11-11T00:06:14;11.90;99.90
33645;DHT22;19986;48.190;16.366;2022-11-11T00:08:40;11.90;99.90
33645;DHT22;19986;48.190;16.366;2022-11-11T00:11:11;11.90;99.90
33645;DHT22;19986;48.190;16.366;2022-11-11T00:13:41;11.90;99.90
33645;DHT22;19986;48.190;16.366;2022-11-11T00:16:17;11.90;99.90
33645;DHT22;19986;48.190;16.366;2022-11-11T00:18:44;11.90;99.90
33645;DHT22;19986;48.190;16.366;2022-11-11T00:21:29;11.80;99.90
33645;DHT22;19986;48.190;16.366;2022-11-11T00:24:23;11.80;99.90
33645;DHT22;19986;48.190;16.366;2022-11-11T00:27:09;11.80;99.90
33645;DHT22;19986;48.190;16.366;2022-11-11T00:29:36;11.70;99.90
33645;DHT22;19986;48.190;16.366;2022-11-11T00:32:04;11.70;99.90
33645;DHT22;19986;48.190;16.366;2022-11-11T00:34:49;11.70;99.90
33645;DHT22;19986;48.190;16.366;2022-11-11T00:37:34;11.70;99.90
33645;DHT22;19986;48.190;16.366;2022-11-11T00:40:01;11.70;99.90
33645;DHT22;19986;48.190;16.366;2022-11-11T00:42:27;11.70;99.90
33645;DHT22;19986;48.190;16.366;2022-11-11T00:44:53;11.70;99.90
33645;DHT22;19986;48.190;16.366;2022-11-11T00:47:19;11.70;99.90
33645;DHT22;19986;48.190;16.366;2022-11-11T00:50:11;11.70;99.90
33645;DHT22;19986;48.190;16.366;2022-11-11T00:52:56;11.70;99.90
33645;DHT22;19986;48.190;16.366;2022-11-11T00:55:22;11.70;99.90
33645;DHT22;19986;48.190;16.366;2022-11-11T00:57:49;11.70;99.90
33645;DHT22;19986;48.190;16.366;2022-11-11T01:00:15;11.70;99.90
33645;DHT22;19986;48.190;16.366;2022-11-11T01:02:41;11.70;99.90
33645;DHT22;19986;48.190;16.366;2022-11-11T01:05:08;11.70;99.90
33645;DHT22;19986;48.190;16.366;2022-11-11T01:07:34;11.60;99.90
33645;DHT22;19986;48.190;16.366;2022-11-11T01:10:16;11.60;99.90
33645;DHT22;19986;48.190;16.366;2022-11-11T01:13:02;11.60;99.90
33645;DHT22;19986;48.190;16.366;2022-11-11T01:15:41;11.60;99.90
33645;DHT22;19986;48.190;16.366;2022-11-11T01:18:09;11.60;99.90
33645;DHT22;19986;48.190;16.366;2022-11-11T01:20:35;11.60;99.90
33645;DHT22;19986;48.190;16.366;2022-11-11T01:23:05;11.50;99.90
33645;DHT22;19986;48.190;16.366;2022-11-11T01:25:36;11.60;99.90
33645;DHT22;19986;48.190;16.366;2022-11-11T01:28:04;11.50;99.90
33645;DHT22;19986;48.190;16.366;2022-11-11T01:30:32;11.50;99.90
33645;DHT22;19986;48.190;16.366;2022-11-11T01:32:59;11.50;99.90
33645;DHT22;19986;48.190;16.366;2022-11-11T01:35:25;11.50;99.90
33645;DHT22;19986;48.190;16.366;2022-11-11T01:37:51;11.50;99.90
33645;DHT22;19986;48.190;16.366;2022-11-11T01:40:18;11.50;99.90
33645;DHT22;19986;48.190;16.366;2022-11-11T01:42:46;11.60;99.90
33645;DHT22;19986;48.190;16.366;2022-11-11T01:48:24;11.50;99.90
33645;DHT22;19986;48.190;16.366;2022-11-11T01:53:51;11.50;99.90
33645;DHT22;19986;48.190;16.366;2022-11-11T01:56:19;11.50;99.90
33645;DHT22;19986;48.190;16.366;2022-11-11T01:58:46;11.50;99.90
33645;DHT22;19986;48.190;16.366;2022-11-11T02:01:13;11.50;99.90
33645;DHT22;19986;48.190;16.366;2022-11-11T02:03:40;11.40;99.90
33645;DHT22;19986;48.190;16.366;2022-11-11T02:06:07;11.40;99.90
33645;DHT22;19986;48.190;16.366;2022-11-11T02:08:35;11.40;99.90
33645;DHT22;19986;48.190;16.366;2022-11-11T02:11:08;11.30;99.90
33645;DHT22;19986;48.190;16.366;2022-11-11T02:13:40;11.30;99.90
33645;DHT22;19986;48.190;16.366;2022-11-11T02:16:26;11.30;99.90
33645;DHT22;19986;48.190;16.366;2022-11-11T02:18:53;11.30;99.90
33645;DHT22;19986;48.190;16.366;2022-11-11T02:21:32;11.30;99.90
33645;DHT22;19986;48.190;16.366;2022-11-11T02:24:08;11.20;99.90
33645;DHT22;19986;48.190;16.366;2022-11-11T02:26:37;11.20;99.90
33645;DHT22;19986;48.190;16.366;2022-11-11T02:29:10;11.20;99.90
33645;DHT22;19986;48.190;16.366;2022-11-11T02:31:38;11.20;99.90
33645;DHT22;19986;48.190;16.366;2022-11-11T02:34:04;11.20;99.90
33645;DHT22;19986;48.190;16.366;2022-11-11T02:36:30;11.20;99.90
33645;DHT22;19986;48.190;16.366;2022-11-11T02:38:57;11.20;99.90
33645;DHT22;19986;48.190;16.366;2022-11-11T02:41:23;11.20;99.90
33645;DHT22;19986;48.190;16.366;2022-11-11T02:44:15;11.10;99.90
33645;DHT22;19986;48.190;16.366;2022-11-11T02:46:41;11.10;99.90
33645;DHT22;19986;48.190;16.366;2022-11-11T02:49:07;11.10;99.90
33645;DHT22;19986;48.190;16.366;2022-11-11T02:51:33;11.00;99.90
33645;DHT22;19986;48.190;16.366;2022-11-11T02:53:59;11.10;99.90
33645;DHT22;19986;48.190;16.366;2022-11-11T02:56:28;11.10;99.90
33645;DHT22;19986;48.190;16.366;2022-11-11T02:59:12;11.10;99.90
33645;DHT22;19986;48.190;16.366;2022-11-11T03:01:38;11.00;99.90
33645;DHT22;19986;48.190;16.366;2022-11-11T03:04:04;11.00;99.90
33645;DHT22;19986;48.190;16.366;2022-11-11T03:06:30;11.10;99.90
33645;DHT22;19986;48.190;16.366;2022-11-11T03:08:56;11.10;99.90
33645;DHT22;19986;48.190;16.366;2022-11-11T03:11:22;11.00;99.90
33645;DHT22;19986;48.190;16.366;2022-11-11T03:13:58;11.00;99.90
33645;DHT22;19986;48.190;16.366;2022-11-11T03:16:25;11.00;99.90
33645;DHT22;19986;48.190;16.366;2022-11-11T03:19:11;11.00;99.90
33645;DHT22;19986;48.190;16.366;2022-11-11T03:21:52;11.00;99.90
33645;DHT22;19986;48.190;16.366;2022-11-11T03:24:21;11.00;99.90
33645;DHT22;19986;48.190;16.366;2022-11-11T03:26:47;11.00;99.90
33645;DHT22;19986;48.190;16.366;2022-11-11T03:29:12;11.10;99.90
33645;DHT22;19986;48.190;16.366;2022-11-11T03:31:38;11.10;99.90
33645;DHT22;19986;48.190;16.366;2022-11-11T03:34:04;11.10;99.90
33645;DHT22;19986;48.190;16.366;2022-11-11T03:36:43;11.10;99.90
33645;DHT22;19986;48.190;16.366;2022-11-11T03:39:28;11.10;99.90
33645;DHT22;19986;48.190;16.366;2022-11-11T03:41:57;11.10;99.90
33645;DHT22;19986;48.190;16.366;2022-11-11T03:44:23;11.10;99.90
33645;DHT22;19986;48.190;16.366;2022-11-11T03:46:49;11.10;99.90
33645;DHT22;19986;48.190;16.366;2022-11-11T03:49:15;11.10;99.90
33645;DHT22;19986;48.190;16.366;2022-11-11T03:51:43;11.10;99.90
33645;DHT22;19986;48.190;16.366;2022-11-11T03:54:09;11.00;99.90
33645;DHT22;19986;48.190;16.366;2022-11-11T03:56:35;11.00;99.90
33645;DHT22;19986;48.190;16.366;2022-11-11T03:59:03;11.10;99.90
33645;DHT22;19986;48.190;16.366;2022-11-11T04:01:29;11.00;99.90
33645;DHT22;19986;48.190;16.366;2022-11-11T04:04:13;11.00;99.90
33645;DHT22;19986;48.190;16.366;2022-11-11T04:06:58;11.00;99.90
33645;DHT22;19986;48.190;16.366;2022-11-11T04:09:42;11.00;99.90
33645;DHT22;19986;48.190;16.366;2022-11-11T04:12:28;11.00;99.90
33645;DHT22;19986;48.190;16.366;2022-11-11T04:14:54;11.00;99.90
33645;DHT22;19986;48.190;16.366;2022-11-11T04:17:39;11.00;99.90
33645;DHT22;19986;48.190;16.366;2022-11-11T04:20:06;11.00;99.90
33645;DHT22;19986;48.190;16.366;2022-11-11T04:22:50;11.00;99.90
33645;DHT22;19986;48.190;16.366;2022-11-11T04:25:18;11.00;99.90
33645;DHT22;19986;48.190;16.366;2022-11-11T04:28:03;11.00;99.90
33645;DHT22;19986;48.190;16.366;2022-11-11T04:30:47;10.90;99.90
33645;DHT22;19986;48.190;16.366;2022-11-11T04:33:16;11.00;99.90
33645;DHT22;19986;48.190;16.366;2022-11-11T04:35:42;11.00;99.90
33645;DHT22;19986;48.190;16.366;2022-11-11T04:38:07;11.00;99.90
33645;DHT22;19986;48.190;16.366;2022-11-11T04:40:52;11.00;99.90
33645;DHT22;19986;48.190;16.366;2022-11-11T04:43:31;11.00;99.90
33645;DHT22;19986;48.190;16.366;2022-11-11T04:45:58;11.00;99.90
33645;DHT22;19986;48.190;16.366;2022-11-11T04:48:24;11.00;99.90
33645;DHT22;19986;48.190;16.366;2022-11-11T04:50:50;11.00;99.90
33645;DHT22;19986;48.190;16.366;2022-11-11T04:53:18;11.10;99.90
33645;DHT22;19986;48.190;16.366;2022-11-11T04:55:44;11.00;99.90
33645;DHT22;19986;48.190;16.366;2022-11-11T04:58:31;11.10;99.90
33645;DHT22;19986;48.190;16.366;2022-11-11T05:00:58;11.00;99.90
33645;DHT22;19986;48.190;16.366;2022-11-11T05:03:24;11.10;99.90
33645;DHT22;19986;48.190;16.366;2022-11-11T05:05:53;11.00;99.90
33645;DHT22;19986;48.190;16.366;2022-11-11T05:08:42;11.10;99.90
33645;DHT22;19986;48.190;16.366;2022-11-11T05:11:33;11.00;99.90
33645;DHT22;19986;48.190;16.366;2022-11-11T05:14:02;11.10;99.90
33645;DHT22;19986;48.190;16.366;2022-11-11T05:16:55;11.10;99.90
33645;DHT22;19986;48.190;16.366;2022-11-11T05:19:40;11.10;99.90
33645;DHT22;19986;48.190;16.366;2022-11-11T05:22:29;11.10;99.90
33645;DHT22;19986;48.190;16.366;2022-11-11T05:24:56;11.00;99.90
33645;DHT22;19986;48.190;16.366;2022-11-11T05:27:40;11.00;99.90
33645;DHT22;19986;48.190;16.366;2022-11-11T05:30:08;11.00;99.90
33645;DHT22;19986;48.190;16.366;2022-11-11T05:32:35;11.00;99.90
33645;DHT22;19986;48.190;16.366;2022-11-11T05:35:01;11.00;99.90
33645;DHT22;19986;48.190;16.366;2022-11-11T05:37:27;11.00;99.90
33645;DHT22;19986;48.190;16.366;2022-11-11T05:39:54;11.00;99.90
33645;DHT22;19986;48.190;16.366;2022-11-11T05:42:24;11.00;99.90
33645;DHT22;19986;48.190;16.366;2022-11-11T05:44:50;11.00;99.90
33645;DHT22;19986;48.190;16.366;2022-11-11T05:47:16;11.00;99.90
33645;DHT22;19986;48.190;16.366;2022-11-11T05:49:42;11.00;99.90
33645;DHT22;19986;48.190;16.366;2022-11-11T05:52:10;11.00;99.90
33645;DHT22;19986;48.190;16.366;2022-11-11T05:54:37;11.00;99.90
33645;DHT22;19986;48.190;16.366;2022-11-11T05:57:03;11.10;99.90
33645;DHT22;19986;48.190;16.366;2022-11-11T05:59:29;11.10;99.90
33645;DHT22;19986;48.190;16.366;2022-11-11T06:01:55;11.10;99.90
33645;DHT22;19986;48.190;16.366;2022-11-11T06:04:21;11.00;99.90
33645;DHT22;19986;48.190;16.366;2022-11-11T06:06:47;10.90;99.90
33645;DHT22;19986;48.190;16.366;2022-11-11T06:09:13;11.00;99.90
33645;DHT22;19986;48.190;16.366;2022-11-11T06:11:41;10.90;99.90
33645;DHT22;19986;48.190;16.366;2022-11-11T06:14:14;10.90;99.90
33645;DHT22;19986;48.190;16.366;2022-11-11T06:16:40;10.90;99.90
33645;DHT22;19986;48.190;16.366;2022-11-11T06:19:06;10.90;99.90
33645;DHT22;19986;48.190;16.366;2022-11-11T06:21:34;10.90;99.90
33645;DHT22;19986;48.190;16.366;2022-11-11T06:24:20;11.00;99.90
33645;DHT22;19986;48.190;16.366;2022-11-11T06:26:46;10.90;99.90
33645;DHT22;19986;48.190;16.366;2022-11-11T06:29:12;10.90;99.90
33645;DHT22;19986;48.190;16.366;2022-11-11T06:31:38;10.90;99.90
33645;DHT22;19986;48.190;16.366;2022-11-11T06:34:04;10.90;99.90
33645;DHT22;19986;48.190;16.366;2022-11-11T06:36:30;11.00;99.90
33645;DHT22;19986;48.190;16.366;2022-11-11T06:39:00;11.00;99.90
33645;DHT22;19986;48.190;16.366;2022-11-11T06:41:28;11.00;99.90
33645;DHT22;19986;48.190;16.366;2022-11-11T06:44:00;11.00;99.90
33645;DHT22;19986;48.190;16.366;2022-11-11T06:46:29;11.00;99.90
33645;DHT22;19986;48.190;16.366;2022-11-11T06:48:55;11.00;99.90
33645;DHT22;19986;48.190;16.366;2022-11-11T06:51:22;10.90;99.90
33645;DHT22;19986;48.190;16.366;2022-11-11T06:53:48;10.90;99.90
33645;DHT22;19986;48.190;16.366;2022-11-11T06:56:14;10.90;99.90
33645;DHT22;19986;48.190;16.366;2022-11-11T06:58:40;10.90;99.90
33645;DHT22;19986;48.190;16.366;2022-11-11T07:01:08;11.00;99.90
33645;DHT22;19986;48.190;16.366;2022-11-11T07:03:35;11.00;99.90
33645;DHT22;19986;48.190;16.366;2022-11-11T07:06:02;11.00;99.90
33645;DHT22;19986;48.190;16.366;2022-11-11T07:08:28;11.10;99.90
33645;DHT22;19986;48.190;16.366;2022-11-11T07:10:56;11.10;99.90
33645;DHT22;19986;48.190;16.366;2022-11-11T07:13:22;11.10;99.90
33645;DHT22;19986;48.190;16.366;2022-11-11T07:15:48;11.20;99.90
33645;DHT22;19986;48.190;16.366;2022-11-11T07:18:14;11.30;99.90
33645;DHT22;19986;48.190;16.366;2022-11-11T07:20:40;11.40;99.90
33645;DHT22;19986;48.190;16.366;2022-11-11T07:23:08;11.30;99.90
33645;DHT22;19986;48.190;16.366;2022-11-11T07:25:34;11.40;99.90
33645;DHT22;19986;48.190;16.366;2022-11-11T07:28:01;11.50;99.90
33645;DHT22;19986;48.190;16.366;2022-11-11T07:30:28;11.50;99.90
33645;DHT22;19986;48.190;16.366;2022-11-11T07:32:55;11.50;99.90
33645;DHT22;19986;48.190;16.366;2022-11-11T07:35:21;11.50;99.90
33645;DHT22;19986;48.190;16.366;2022-11-11T07:37:47;11.50;99.90
33645;DHT22;19986;48.190;16.366;2022-11-11T07:40:15;11.60;99.90
33645;DHT22;19986;48.190;16.366;2022-11-11T07:42:42;11.60;99.90
33645;DHT22;19986;48.190;16.366;2022-11-11T07:45:09;11.70;99.90
33645;DHT22;19986;48.190;16.366;2022-11-11T07:47:36;11.80;99.90
33645;DHT22;19986;48.190;16.366;2022-11-11T07:50:04;12.00;99.90
33645;DHT22;19986;48.190;16.366;2022-11-11T07:52:30;12.10;99.90
33645;DHT22;19986;48.190;16.366;2022-11-11T07:54:56;12.20;99.90
33645;DHT22;19986;48.190;16.366;2022-11-11T07:57:23;12.30;99.90
33645;DHT22;19986;48.190;16.366;2022-11-11T07:59:49;12.40;99.90
33645;DHT22;19986;48.190;16.366;2022-11-11T08:02:18;12.50;99.90
33645;DHT22;19986;48.190;16.366;2022-11-11T08:04:51;12.70;99.90
33645;DHT22;19986;48.190;16.366;2022-11-11T08:07:17;12.80;99.90
33645;DHT22;19986;48.190;16.366;2022-11-11T08:09:44;12.90;99.90
33645;DHT22;19986;48.190;16.366;2022-11-11T08:12:10;13.00;99.90
33645;DHT22;19986;48.190;16.366;2022-11-11T08:14:54;13.10;99.90
33645;DHT22;19986;48.190;16.366;2022-11-11T08:17:21;13.20;99.90
33645;DHT22;19986;48.190;16.366;2022-11-11T08:19:46;13.20;99.90
33645;DHT22;19986;48.190;16.366;2022-11-11T08:22:13;13.30;99.90
33645;DHT22;19986;48.190;16.366;2022-11-11T08:24:40;13.40;99.90
33645;DHT22;19986;48.190;16.366;2022-11-11T08:27:06;13.40;99.90
33645;DHT22;19986;48.190;16.366;2022-11-11T08:29:32;13.40;99.90
33645;DHT22;19986;48.190;16.366;2022-11-11T08:31:58;13.30;99.90
33645;DHT22;19986;48.190;16.366;2022-11-11T08:34:24;13.40;99.90
33645;DHT22;19986;48.190;16.366;2022-11-11T08:36:50;13.40;99.90
33645;DHT22;19986;48.190;16.366;2022-11-11T08:39:16;13.50;99.90
33645;DHT22;19986;48.190;16.366;2022-11-11T08:41:42;13.50;99.90
33645;DHT22;19986;48.190;16.366;2022-11-11T08:44:08;13.60;99.90
33645;DHT22;19986;48.190;16.366;2022-11-11T08:46:34;13.60;99.90
33645;DHT22;19986;48.190;16.366;2022-11-11T08:49:00;13.60;99.90
33645;DHT22;19986;48.190;16.366;2022-11-11T08:51:26;13.60;99.90
33645;DHT22;19986;48.190;16.366;2022-11-11T08:53:54;13.60;99.90
33645;DHT22;19986;48.190;16.366;2022-11-11T08:56:22;13.60;99.90
33645;DHT22;19986;48.190;16.366;2022-11-11T08:58:48;13.60;99.90
33645;DHT22;19986;48.190;16.366;2022-11-11T09:01:14;13.60;99.90
33645;DHT22;19986;48.190;16.366;2022-11-11T09:03:41;13.70;99.90
33645;DHT22;19986;48.190;16.366;2022-11-11T09:06:09;13.70;99.90
33645;DHT22;19986;48.190;16.366;2022-11-11T09:08:35;13.70;99.90
33645;DHT22;19986;48.190;16.366;2022-11-11T09:11:01;13.70;99.90
33645;DHT22;19986;48.190;16.366;2022-11-11T09:13:27;13.70;99.90
33645;DHT22;19986;48.190;16.366;2022-11-11T09:15:53;13.70;99.90
33645;DHT22;19986;48.190;16.366;2022-11-11T09:18:20;13.80;99.90
33645;DHT22;19986;48.190;16.366;2022-11-11T09:20:45;13.80;99.90
33645;DHT22;19986;48.190;16.366;2022-11-11T09:23:13;13.80;99.90
33645;DHT22;19986;48.190;16.366;2022-11-11T09:25:39;13.80;99.90
33645;DHT22;19986;48.190;16.366;2022-11-11T09:28:04;13.80;99.90
33645;DHT22;19986;48.190;16.366;2022-11-11T09:30:30;13.80;99.90
33645;DHT22;19986;48.190;16.366;2022-11-11T09:33:01;13.80;99.90
33645;DHT22;19986;48.190;16.366;2022-11-11T09:35:27;13.80;99.90
33645;DHT22;19986;48.190;16.366;2022-11-11T09:38:00;13.80;99.90
33645;DHT22;19986;48.190;16.366;2022-11-11T09:46:32;13.90;99.90
33645;DHT22;19986;48.190;16.366;2022-11-11T09:51:51;14.00;99.90
33645;DHT22;19986;48.190;16.366;2022-11-11T09:54:33;14.10;99.90
33645;DHT22;19986;48.190;16.366;2022-11-11T09:57:07;14.20;99.90
33645;DHT22;19986;48.190;16.366;2022-11-11T09:59:45;14.20;99.90
33645;DHT22;19986;48.190;16.366;2022-11-11T10:05:33;14.20;99.90
33645;DHT22;19986;48.190;16.366;2022-11-11T10:08:33;14.00;99.90
33645;DHT22;19986;48.190;16.366;2022-11-11T10:11:00;14.00;99.90
33645;DHT22;19986;48.190;16.366;2022-11-11T10:13:29;14.00;99.90
33645;DHT22;19986;48.190;16.366;2022-11-11T10:18:54;14.10;99.90
33645;DHT22;19986;48.190;16.366;2022-11-11T10:21:51;14.10;99.90
33645;DHT22;19986;48.190;16.366;2022-11-11T10:24:29;14.10;99.90
33645;DHT22;19986;48.190;16.366;2022-11-11T10:27:01;14.00;99.90
33645;DHT22;19986;48.190;16.366;2022-11-11T10:29:42;14.00;99.90
33645;DHT22;19986;48.190;16.366;2022-11-11T10:32:11;14.10;99.90
33645;DHT22;19986;48.190;16.366;2022-11-11T10:34:40;14.20;99.90
33645;DHT22;19986;48.190;16.366;2022-11-11T10:37:17;14.10;99.90
33645;DHT22;19986;48.190;16.366;2022-11-11T10:42:30;14.10;99.90
33645;DHT22;19986;48.190;16.366;2022-11-11T10:45:01;14.10;99.90
33645;DHT22;19986;48.190;16.366;2022-11-11T10:47:51;14.20;99.90
33645;DHT22;19986;48.190;16.366;2022-11-11T10:50:33;14.20;99.90
33645;DHT22;19986;48.190;16.366;2022-11-11T10:53:11;14.20;99.90
33645;DHT22;19986;48.190;16.366;2022-11-11T10:55:51;14.20;99.90
33645;DHT22;19986;48.190;16.366;2022-11-11T10:58:48;14.30;99.90
33645;DHT22;19986;48.190;16.366;2022-11-11T11:01:21;14.40;99.90
33645;DHT22;19986;48.190;16.366;2022-11-11T11:03:54;14.50;99.90
33645;DHT22;19986;48.190;16.366;2022-11-11T11:06:25;14.60;99.90
33645;DHT22;19986;48.190;16.366;2022-11-11T11:09:05;14.60;99.90
33645;DHT22;19986;48.190;16.366;2022-11-11T11:14:29;14.90;99.90
33645;DHT22;19986;48.190;16.366;2022-11-11T11:16:59;14.90;99.90
33645;DHT22;19986;48.190;16.366;2022-11-11T11:19:29;15.00;99.90
33645;DHT22;19986;48.190;16.366;2022-11-11T11:22:00;15.00;99.90
33645;DHT22;19986;48.190;16.366;2022-11-11T11:24:31;15.10;99.90
33645;DHT22;19986;48.190;16.366;2022-11-11T11:27:02;15.20;99.90
33645;DHT22;19986;48.190;16.366;2022-11-11T11:32:27;15.30;99.90
33645;DHT22;19986;48.190;16.366;2022-11-11T11:34:55;15.40;99.90
33645;DHT22;19986;48.190;16.366;2022-11-11T11:37:23;15.40;99.90
33645;DHT22;19986;48.190;16.366;2022-11-11T11:40:02;15.60;99.90
33645;DHT22;19986;48.190;16.366;2022-11-11T11:42:30;15.70;99.90
33645;DHT22;19986;48.190;16.366;2022-11-11T11:44:56;15.70;99.90
33645;DHT22;19986;48.190;16.366;2022-11-11T11:47:38;15.80;99.90
33645;DHT22;19986;48.190;16.366;2022-11-11T11:50:20;15.80;99.90
33645;DHT22;19986;48.190;16.366;2022-11-11T11:55:42;16.10;99.90
33645;DHT22;19986;48.190;16.366;2022-11-11T12:01:43;16.30;99.90
33645;DHT22;19986;48.190;16.366;2022-11-11T12:10:56;16.50;99.90
33645;DHT22;19986;48.190;16.366;2022-11-11T12:21:38;16.30;99.90
33645;DHT22;19986;48.190;16.366;2022-11-11T12:32:53;16.20;99.90
33645;DHT22;19986;48.190;16.366;2022-11-11T12:37:45;16.20;99.90
33645;DHT22;19986;48.190;16.366;2022-11-11T12:40:40;16.10;99.90
33645;DHT22;19986;48.190;16.366;2022-11-11T12:46:28;16.00;99.90
33645;DHT22;19986;48.190;16.366;2022-11-11T13:00:15;16.00;99.90
33645;DHT22;19986;48.190;16.366;2022-11-11T13:06:19;15.90;99.90
33645;DHT22;19986;48.190;16.366;2022-11-11T13:09:17;15.80;99.90
33645;DHT22;19986;48.190;16.366;2022-11-11T13:15:06;15.80;99.90
33645;DHT22;19986;48.190;16.366;2022-11-11T13:17:37;15.90;99.90
33645;DHT22;19986;48.190;16.366;2022-11-11T13:22:39;15.80;99.90
33645;DHT22;19986;48.190;16.366;2022-11-11T13:25:06;15.70;99.90
33645;DHT22;19986;48.190;16.366;2022-11-11T13:27:58;15.80;99.90
33645;DHT22;19986;48.190;16.366;2022-11-11T13:33:33;15.70;99.90
33645;DHT22;19986;48.190;16.366;2022-11-11T13:36:02;15.70;99.90
33645;DHT22;19986;48.190;16.366;2022-11-11T13:38:34;15.70;99.90
33645;DHT22;19986;48.190;16.366;2022-11-11T13:41:04;15.70;99.90
33645;DHT22;19986;48.190;16.366;2022-11-11T13:46:22;15.70;99.90
33645;DHT22;19986;48.190;16.366;2022-11-11T13:48:54;15.70;99.90
33645;DHT22;19986;48.190;16.366;2022-11-11T13:51:39;15.70;99.90
33645;DHT22;19986;48.190;16.366;2022-11-11T13:56:46;15.70;99.90
33645;DHT22;19986;48.190;16.366;2022-11-11T13:59:27;15.70;99.90
33645;DHT22;19986;48.190;16.366;2022-11-11T14:12:54;15.70;99.90
33645;DHT22;19986;48.190;16.366;2022-11-11T14:20:52;15.70;99.90
33645;DHT22;19986;48.190;16.366;2022-11-11T14:23:36;15.80;99.90
33645;DHT22;19986;48.190;16.366;2022-11-11T14:28:50;15.80;99.90
33645;DHT22;19986;48.190;16.366;2022-11-11T14:39:36;15.80;99.90
33645;DHT22;19986;48.190;16.366;2022-11-11T14:42:03;15.80;99.90
33645;DHT22;19986;48.190;16.366;2022-11-11T14:47:22;15.80;99.90
33645;DHT22;19986;48.190;16.366;2022-11-11T14:49:53;15.80;99.90
33645;DHT22;19986;48.190;16.366;2022-11-11T14:52:31;15.70;99.90
33645;DHT22;19986;48.190;16.366;2022-11-11T14:55:10;15.70;99.90
33645;DHT22;19986;48.190;16.366;2022-11-11T14:57:47;15.70;99.90
33645;DHT22;19986;48.190;16.366;2022-11-11T15:00:21;15.70;99.90
33645;DHT22;19986;48.190;16.366;2022-11-11T15:03:02;15.60;99.90
33645;DHT22;19986;48.190;16.366;2022-11-11T15:14:33;15.50;99.90
33645;DHT22;19986;48.190;16.366;2022-11-11T15:17:09;15.40;99.90
33645;DHT22;19986;48.190;16.366;2022-11-11T15:36:49;15.20;99.90
33645;DHT22;19986;48.190;16.366;2022-11-11T15:39:19;15.40;99.90
33645;DHT22;19986;48.190;16.366;2022-11-11T15:41:47;15.50;99.90
33645;DHT22;19986;48.190;16.366;2022-11-11T15:44:27;15.40;99.90
33645;DHT22;19986;48.190;16.366;2022-11-11T15:46:54;15.20;99.90
33645;DHT22;19986;48.190;16.366;2022-11-11T15:52:02;15.30;99.90
33645;DHT22;19986;48.190;16.366;2022-11-11T15:54:32;15.50;99.90
33645;DHT22;19986;48.190;16.366;2022-11-11T15:56:58;15.50;99.90
33645;DHT22;19986;48.190;16.366;2022-11-11T15:59:29;15.40;99.90
33645;DHT22;19986;48.190;16.366;2022-11-11T16:02:18;15.30;99.90
33645;DHT22;19986;48.190;16.366;2022-11-11T16:05:00;15.20;99.90
33645;DHT22;19986;48.190;16.366;2022-11-11T16:07:35;15.10;99.90
33645;DHT22;19986;48.190;16.366;2022-11-11T16:10:13;15.10;99.90
33645;DHT22;19986;48.190;16.366;2022-11-11T16:15:55;15.20;99.90
33645;DHT22;19986;48.190;16.366;2022-11-11T16:18:29;15.10;99.90
33645;DHT22;19986;48.190;16.366;2022-11-11T16:21:20;15.00;99.90
33645;DHT22;19986;48.190;16.366;2022-11-11T16:23:47;14.80;99.90
33645;DHT22;19986;48.190;16.366;2022-11-11T16:26:14;14.80;99.90
33645;DHT22;19986;48.190;16.366;2022-11-11T16:28:45;14.70;99.90
33645;DHT22;19986;48.190;16.366;2022-11-11T16:31:21;14.60;99.90
33645;DHT22;19986;48.190;16.366;2022-11-11T16:33:47;14.60;99.90
33645;DHT22;19986;48.190;16.366;2022-11-11T16:36:13;14.60;99.90
33645;DHT22;19986;48.190;16.366;2022-11-11T16:38:39;14.50;99.90
33645;DHT22;19986;48.190;16.366;2022-11-11T16:41:41;14.50;99.90
33645;DHT22;19986;48.190;16.366;2022-11-11T16:44:40;14.50;99.90
33645;DHT22;19986;48.190;16.366;2022-11-11T16:52:59;14.40;99.90
33645;DHT22;19986;48.190;16.366;2022-11-11T16:55:34;14.30;99.90
33645;DHT22;19986;48.190;16.366;2022-11-11T17:00:41;14.30;99.90
33645;DHT22;19986;48.190;16.366;2022-11-11T17:03:11;14.30;99.90
33645;DHT22;19986;48.190;16.366;2022-11-11T17:05:53;14.30;99.90
33645;DHT22;19986;48.190;16.366;2022-11-11T17:10:53;14.20;99.90
33645;DHT22;19986;48.190;16.366;2022-11-11T17:13:18;14.20;99.90
33645;DHT22;19986;48.190;16.366;2022-11-11T17:15:44;14.20;99.90
33645;DHT22;19986;48.190;16.366;2022-11-11T17:18:10;14.20;99.90
33645;DHT22;19986;48.190;16.366;2022-11-11T17:20:38;14.10;99.90
33645;DHT22;19986;48.190;16.366;2022-11-11T17:23:05;14.10;99.90
33645;DHT22;19986;48.190;16.366;2022-11-11T17:25:32;14.10;99.90
33645;DHT22;19986;48.190;16.366;2022-11-11T17:27:59;14.00;99.90
33645;DHT22;19986;48.190;16.366;2022-11-11T17:30:25;14.00;99.90
33645;DHT22;19986;48.190;16.366;2022-11-11T17:32:50;14.00;99.90
33645;DHT22;19986;48.190;16.366;2022-11-11T17:35:16;14.00;99.90
33645;DHT22;19986;48.190;16.366;2022-11-11T17:37:42;14.00;99.90
33645;DHT22;19986;48.190;16.366;2022-11-11T17:40:09;13.90;99.90
33645;DHT22;19986;48.190;16.366;2022-11-11T17:42:36;14.00;99.90
33645;DHT22;19986;48.190;16.366;2022-11-11T17:45:03;14.00;99.90
33645;DHT22;19986;48.190;16.366;2022-11-11T17:47:30;14.00;99.90
33645;DHT22;19986;48.190;16.366;2022-11-11T17:49:57;14.00;99.90
33645;DHT22;19986;48.190;16.366;2022-11-11T17:52:23;14.00;99.90
33645;DHT22;19986;48.190;16.366;2022-11-11T17:54:49;14.00;99.90
33645;DHT22;19986;48.190;16.366;2022-11-11T17:57:15;13.90;99.90
33645;DHT22;19986;48.190;16.366;2022-11-11T17:59:41;13.90;99.90
33645;DHT22;19986;48.190;16.366;2022-11-11T18:02:10;13.90;99.90
33645;DHT22;19986;48.190;16.366;2022-11-11T18:04:37;13.90;99.90
33645;DHT22;19986;48.190;16.366;2022-11-11T18:07:03;13.90;99.90
33645;DHT22;19986;48.190;16.366;2022-11-11T18:09:29;13.90;99.90
33645;DHT22;19986;48.190;16.366;2022-11-11T18:11:57;13.90;99.90
33645;DHT22;19986;48.190;16.366;2022-11-11T18:14:22;13.80;99.90
33645;DHT22;19986;48.190;16.366;2022-11-11T18:16:48;13.80;99.90
33645;DHT22;19986;48.190;16.366;2022-11-11T18:19:14;13.80;99.90
33645;DHT22;19986;48.190;16.366;2022-11-11T18:21:41;13.80;99.90
33645;DHT22;19986;48.190;16.366;2022-11-11T18:24:08;13.70;99.90
33645;DHT22;19986;48.190;16.366;2022-11-11T18:26:36;13.80;99.90